Strona główna
METAR-TAF:

METAR-TAF

Lotnisko :

Normanton, Australia

Szerokość geograficzna: 17-41-06S, Długość geograficzna: 141-04-12E, wysokość: 22 m

Aktualna obserwacja pogody

Raport powstał 1 godzina i 9 minut temu, godzina 21:00 UTC
Wiatr 8 kt od zachodnio-południowy zachód
Temperatura 26°C
Wilgotność 94%
Ciśnienie 1010 hPa
Widzialność 10 km lub więcej

METAR: YNTN 102100Z AUTO 25008KT 9999 // NCD 26/25 Q1010

czas: 08:09 (22:09 UTC)


TAF: brakujący

Obserwacja i prognoza pogody dla ponad 4000 lotnisk (raport METAR i TAF).

Dostępne stacje oznaczono żółtymi i czerwonymi punktami na mapie.

Najedź kursorem aby zobaczyć nazwę stacji.

Kliknij aby zobaczyć obserwacje i prognozy pogody.

Aby zmienić mapę: kliknij na zielony przycisk z czarnym krzyżykiem, aby powiększyć; na zielony przycisk z myślnikiem, aby pomniejszyć; na zielone strzałki, aby przejść do map sąsiednich.


METAR-TAF: